sensor_id;sensor_type;location;lat;lon;timestamp;temperature;humidity
62797;DHT22;48839;48.546;-4.178;2022-07-29T00:02:02;16.10;99.90
62797;DHT22;48839;48.546;-4.178;2022-07-29T00:04:28;15.90;99.90
62797;DHT22;48839;48.546;-4.178;2022-07-29T00:06:53;17.30;99.90
62797;DHT22;48839;48.546;-4.178;2022-07-29T00:09:19;17.20;99.90
62797;DHT22;48839;48.546;-4.178;2022-07-29T00:11:44;17.20;99.90
62797;DHT22;48839;48.546;-4.178;2022-07-29T00:14:10;15.90;99.90
62797;DHT22;48839;48.546;-4.178;2022-07-29T00:16:36;15.60;99.90
62797;DHT22;48839;48.546;-4.178;2022-07-29T00:19:02;17.10;99.90
62797;DHT22;48839;48.546;-4.178;2022-07-29T00:21:28;16.90;99.90
62797;DHT22;48839;48.546;-4.178;2022-07-29T00:23:54;16.80;99.90
62797;DHT22;48839;48.546;-4.178;2022-07-29T00:26:19;15.60;99.90
62797;DHT22;48839;48.546;-4.178;2022-07-29T00:28:45;15.70;99.90
62797;DHT22;48839;48.546;-4.178;2022-07-29T00:31:11;15.60;99.90
62797;DHT22;48839;48.546;-4.178;2022-07-29T00:33:36;16.80;99.90
62797;DHT22;48839;48.546;-4.178;2022-07-29T00:36:02;15.30;99.90
62797;DHT22;48839;48.546;-4.178;2022-07-29T00:38:28;15.30;99.90
62797;DHT22;48839;48.546;-4.178;2022-07-29T00:40:54;15.10;99.90
62797;DHT22;48839;48.546;-4.178;2022-07-29T00:43:19;15.10;99.90
62797;DHT22;48839;48.546;-4.178;2022-07-29T00:45:45;15.60;99.90
62797;DHT22;48839;48.546;-4.178;2022-07-29T00:48:10;16.80;99.90
62797;DHT22;48839;48.546;-4.178;2022-07-29T00:50:36;15.20;99.90
62797;DHT22;48839;48.546;-4.178;2022-07-29T00:53:03;15.40;99.90
62797;DHT22;48839;48.546;-4.178;2022-07-29T00:55:30;16.40;99.90
62797;DHT22;48839;48.546;-4.178;2022-07-29T00:57:57;16.60;99.90
62797;DHT22;48839;48.546;-4.178;2022-07-29T01:00:25;15.60;99.90
62797;DHT22;48839;48.546;-4.178;2022-07-29T01:02:51;16.00;99.90
62797;DHT22;48839;48.546;-4.178;2022-07-29T01:05:18;16.60;99.90
62797;DHT22;48839;48.546;-4.178;2022-07-29T01:07:45;15.40;99.90
62797;DHT22;48839;48.546;-4.178;2022-07-29T01:10:13;16.60;99.90
62797;DHT22;48839;48.546;-4.178;2022-07-29T01:12:40;15.20;99.90
62797;DHT22;48839;48.546;-4.178;2022-07-29T01:15:07;15.50;99.90
62797;DHT22;48839;48.546;-4.178;2022-07-29T01:18:11;15.20;99.90
62797;DHT22;48839;48.546;-4.178;2022-07-29T01:20:44;15.40;99.90
62797;DHT22;48839;48.546;-4.178;2022-07-29T01:26:04;16.90;99.90
62797;DHT22;48839;48.546;-4.178;2022-07-29T01:28:58;15.10;99.90
62797;DHT22;48839;48.546;-4.178;2022-07-29T01:31:35;15.10;99.90
62797;DHT22;48839;48.546;-4.178;2022-07-29T01:34:05;16.00;99.90
62797;DHT22;48839;48.546;-4.178;2022-07-29T01:36:36;16.80;99.90
62797;DHT22;48839;48.546;-4.178;2022-07-29T01:39:13;15.20;99.90
62797;DHT22;48839;48.546;-4.178;2022-07-29T01:41:50;16.50;99.90
62797;DHT22;48839;48.546;-4.178;2022-07-29T01:44:25;16.40;99.90
62797;DHT22;48839;48.546;-4.178;2022-07-29T01:46:58;16.70;99.90
62797;DHT22;48839;48.546;-4.178;2022-07-29T01:49:27;16.20;99.90
62797;DHT22;48839;48.546;-4.178;2022-07-29T01:51:59;16.80;99.90
62797;DHT22;48839;48.546;-4.178;2022-07-29T01:54:41;16.80;99.90
62797;DHT22;48839;48.546;-4.178;2022-07-29T01:57:11;16.70;99.90
62797;DHT22;48839;48.546;-4.178;2022-07-29T01:59:38;16.90;99.90
62797;DHT22;48839;48.546;-4.178;2022-07-29T02:02:06;15.30;99.90
62797;DHT22;48839;48.546;-4.178;2022-07-29T02:04:35;16.90;99.90
62797;DHT22;48839;48.546;-4.178;2022-07-29T02:07:05;16.90;99.90
62797;DHT22;48839;48.546;-4.178;2022-07-29T02:09:33;16.80;99.90
62797;DHT22;48839;48.546;-4.178;2022-07-29T02:12:02;16.80;99.90
62797;DHT22;48839;48.546;-4.178;2022-07-29T02:14:33;14.90;99.90
62797;DHT22;48839;48.546;-4.178;2022-07-29T02:17:00;16.60;99.90
62797;DHT22;48839;48.546;-4.178;2022-07-29T02:19:27;16.90;99.90
62797;DHT22;48839;48.546;-4.178;2022-07-29T02:21:56;15.30;99.90
62797;DHT22;48839;48.546;-4.178;2022-07-29T02:24:24;16.70;99.90
62797;DHT22;48839;48.546;-4.178;2022-07-29T02:26:51;16.30;99.90
62797;DHT22;48839;48.546;-4.178;2022-07-29T02:29:24;16.20;99.90
62797;DHT22;48839;48.546;-4.178;2022-07-29T02:31:51;15.40;99.90
62797;DHT22;48839;48.546;-4.178;2022-07-29T02:34:19;15.20;99.90
62797;DHT22;48839;48.546;-4.178;2022-07-29T02:36:46;16.70;99.90
62797;DHT22;48839;48.546;-4.178;2022-07-29T02:39:15;17.00;99.90
62797;DHT22;48839;48.546;-4.178;2022-07-29T02:44:20;15.00;99.90
62797;DHT22;48839;48.546;-4.178;2022-07-29T02:49:40;16.40;99.90
62797;DHT22;48839;48.546;-4.178;2022-07-29T02:57:42;16.80;99.90
62797;DHT22;48839;48.546;-4.178;2022-07-29T03:00:09;16.70;99.90
62797;DHT22;48839;48.546;-4.178;2022-07-29T03:02:38;16.90;99.90
62797;DHT22;48839;48.546;-4.178;2022-07-29T03:05:07;15.30;99.90
62797;DHT22;48839;48.546;-4.178;2022-07-29T03:07:34;17.10;99.90
62797;DHT22;48839;48.546;-4.178;2022-07-29T03:10:01;16.00;99.90
62797;DHT22;48839;48.546;-4.178;2022-07-29T03:12:28;16.80;99.90
62797;DHT22;48839;48.546;-4.178;2022-07-29T03:14:55;16.90;99.90
62797;DHT22;48839;48.546;-4.178;2022-07-29T03:17:21;16.70;99.90
62797;DHT22;48839;48.546;-4.178;2022-07-29T03:19:48;16.70;99.90
62797;DHT22;48839;48.546;-4.178;2022-07-29T03:22:14;16.60;99.90
62797;DHT22;48839;48.546;-4.178;2022-07-29T03:24:40;16.10;99.90
62797;DHT22;48839;48.546;-4.178;2022-07-29T03:27:06;16.60;99.90
62797;DHT22;48839;48.546;-4.178;2022-07-29T03:29:32;15.40;99.90
62797;DHT22;48839;48.546;-4.178;2022-07-29T03:31:58;15.60;99.90
62797;DHT22;48839;48.546;-4.178;2022-07-29T03:34:23;15.40;99.90
62797;DHT22;48839;48.546;-4.178;2022-07-29T03:36:49;16.80;99.90
62797;DHT22;48839;48.546;-4.178;2022-07-29T03:39:20;15.30;99.90
62797;DHT22;48839;48.546;-4.178;2022-07-29T03:41:49;16.50;99.90
62797;DHT22;48839;48.546;-4.178;2022-07-29T03:44:16;17.10;99.90
62797;DHT22;48839;48.546;-4.178;2022-07-29T03:46:43;15.20;99.90
62797;DHT22;48839;48.546;-4.178;2022-07-29T03:49:11;16.50;99.90
62797;DHT22;48839;48.546;-4.178;2022-07-29T03:51:38;16.50;99.90
62797;DHT22;48839;48.546;-4.178;2022-07-29T03:54:04;17.00;99.90
62797;DHT22;48839;48.546;-4.178;2022-07-29T03:56:32;17.00;99.90
62797;DHT22;48839;48.546;-4.178;2022-07-29T03:58:58;15.30;99.90
62797;DHT22;48839;48.546;-4.178;2022-07-29T04:01:25;16.80;99.90
62797;DHT22;48839;48.546;-4.178;2022-07-29T04:03:51;15.20;99.90
62797;DHT22;48839;48.546;-4.178;2022-07-29T04:06:17;15.80;99.90
62797;DHT22;48839;48.546;-4.178;2022-07-29T04:08:43;16.90;99.90
62797;DHT22;48839;48.546;-4.178;2022-07-29T04:11:08;15.10;99.90
62797;DHT22;48839;48.546;-4.178;2022-07-29T04:13:35;15.90;99.90
62797;DHT22;48839;48.546;-4.178;2022-07-29T04:16:00;16.50;99.90
62797;DHT22;48839;48.546;-4.178;2022-07-29T04:18:26;15.90;99.90
62797;DHT22;48839;48.546;-4.178;2022-07-29T04:20:52;15.30;99.90
62797;DHT22;48839;48.546;-4.178;2022-07-29T04:23:18;16.00;99.90
62797;DHT22;48839;48.546;-4.178;2022-07-29T04:25:43;15.00;99.90
62797;DHT22;48839;48.546;-4.178;2022-07-29T04:28:10;15.40;99.90
62797;DHT22;48839;48.546;-4.178;2022-07-29T04:30:36;16.60;99.90
62797;DHT22;48839;48.546;-4.178;2022-07-29T04:33:06;15.00;99.90
62797;DHT22;48839;48.546;-4.178;2022-07-29T04:35:36;14.60;99.90
62797;DHT22;48839;48.546;-4.178;2022-07-29T04:38:04;16.20;99.90
62797;DHT22;48839;48.546;-4.178;2022-07-29T04:40:29;14.60;99.90
62797;DHT22;48839;48.546;-4.178;2022-07-29T04:42:55;14.50;99.90
62797;DHT22;48839;48.546;-4.178;2022-07-29T04:45:21;16.40;99.90
62797;DHT22;48839;48.546;-4.178;2022-07-29T04:47:47;14.70;99.90
62797;DHT22;48839;48.546;-4.178;2022-07-29T04:50:13;14.70;99.90
62797;DHT22;48839;48.546;-4.178;2022-07-29T04:52:38;16.50;99.90
62797;DHT22;48839;48.546;-4.178;2022-07-29T04:55:05;15.20;99.90
62797;DHT22;48839;48.546;-4.178;2022-07-29T04:57:31;16.00;99.90
62797;DHT22;48839;48.546;-4.178;2022-07-29T04:59:56;16.10;99.90
62797;DHT22;48839;48.546;-4.178;2022-07-29T05:02:22;15.40;99.90
62797;DHT22;48839;48.546;-4.178;2022-07-29T05:04:48;14.70;99.90
62797;DHT22;48839;48.546;-4.178;2022-07-29T05:07:14;15.70;99.90
62797;DHT22;48839;48.546;-4.178;2022-07-29T05:09:40;16.10;99.90
62797;DHT22;48839;48.546;-4.178;2022-07-29T05:12:06;16.10;99.90
62797;DHT22;48839;48.546;-4.178;2022-07-29T05:14:32;16.40;99.90
62797;DHT22;48839;48.546;-4.178;2022-07-29T05:16:57;14.70;99.90
62797;DHT22;48839;48.546;-4.178;2022-07-29T05:19:23;16.30;99.90
62797;DHT22;48839;48.546;-4.178;2022-07-29T05:21:49;16.40;99.90
62797;DHT22;48839;48.546;-4.178;2022-07-29T05:24:15;15.10;99.90
62797;DHT22;48839;48.546;-4.178;2022-07-29T05:26:41;16.70;99.90
62797;DHT22;48839;48.546;-4.178;2022-07-29T05:29:08;16.90;99.90
62797;DHT22;48839;48.546;-4.178;2022-07-29T05:31:33;15.40;99.90
62797;DHT22;48839;48.546;-4.178;2022-07-29T05:33:59;15.80;99.90
62797;DHT22;48839;48.546;-4.178;2022-07-29T05:36:25;17.00;99.90
62797;DHT22;48839;48.546;-4.178;2022-07-29T05:38:51;17.00;99.90
62797;DHT22;48839;48.546;-4.178;2022-07-29T05:41:18;17.30;99.90
62797;DHT22;48839;48.546;-4.178;2022-07-29T05:43:43;17.40;99.90
62797;DHT22;48839;48.546;-4.178;2022-07-29T05:46:09;16.40;99.90
62797;DHT22;48839;48.546;-4.178;2022-07-29T05:48:35;15.80;99.90
62797;DHT22;48839;48.546;-4.178;2022-07-29T05:51:01;15.30;99.90
62797;DHT22;48839;48.546;-4.178;2022-07-29T05:53:26;15.80;99.90
62797;DHT22;48839;48.546;-4.178;2022-07-29T05:55:52;16.50;99.90
62797;DHT22;48839;48.546;-4.178;2022-07-29T05:58:18;18.40;99.90
62797;DHT22;48839;48.546;-4.178;2022-07-29T06:00:44;20.60;99.90
62797;DHT22;48839;48.546;-4.178;2022-07-29T06:03:09;21.00;99.90
62797;DHT22;48839;48.546;-4.178;2022-07-29T06:05:35;22.30;99.90
62797;DHT22;48839;48.546;-4.178;2022-07-29T06:08:01;23.00;99.90
62797;DHT22;48839;48.546;-4.178;2022-07-29T06:10:26;23.90;99.90
62797;DHT22;48839;48.546;-4.178;2022-07-29T06:12:52;24.10;99.90
62797;DHT22;48839;48.546;-4.178;2022-07-29T06:15:18;24.80;99.90
62797;DHT22;48839;48.546;-4.178;2022-07-29T06:17:43;25.20;99.90
62797;DHT22;48839;48.546;-4.178;2022-07-29T06:20:09;25.40;99.90
62797;DHT22;48839;48.546;-4.178;2022-07-29T06:22:35;25.60;99.90
62797;DHT22;48839;48.546;-4.178;2022-07-29T06:25:02;26.10;99.90
62797;DHT22;48839;48.546;-4.178;2022-07-29T06:27:28;26.90;99.90
62797;DHT22;48839;48.546;-4.178;2022-07-29T06:29:53;27.10;99.90
62797;DHT22;48839;48.546;-4.178;2022-07-29T06:32:19;27.40;99.90
62797;DHT22;48839;48.546;-4.178;2022-07-29T06:34:45;28.10;99.90
62797;DHT22;48839;48.546;-4.178;2022-07-29T06:37:10;27.50;99.90
62797;DHT22;48839;48.546;-4.178;2022-07-29T06:39:36;27.80;99.90
62797;DHT22;48839;48.546;-4.178;2022-07-29T06:42:03;28.10;99.90
62797;DHT22;48839;48.546;-4.178;2022-07-29T06:44:29;28.20;99.90
62797;DHT22;48839;48.546;-4.178;2022-07-29T06:46:55;28.40;99.90
62797;DHT22;48839;48.546;-4.178;2022-07-29T06:49:21;27.60;99.90
62797;DHT22;48839;48.546;-4.178;2022-07-29T06:51:48;27.10;99.90
62797;DHT22;48839;48.546;-4.178;2022-07-29T06:54:14;27.90;99.90
62797;DHT22;48839;48.546;-4.178;2022-07-29T06:56:40;28.30;99.90
62797;DHT22;48839;48.546;-4.178;2022-07-29T06:59:11;28.80;99.90
62797;DHT22;48839;48.546;-4.178;2022-07-29T07:01:38;29.10;99.90
62797;DHT22;48839;48.546;-4.178;2022-07-29T07:04:04;28.50;99.90
62797;DHT22;48839;48.546;-4.178;2022-07-29T07:06:30;28.70;99.90
62797;DHT22;48839;48.546;-4.178;2022-07-29T07:08:56;28.70;99.90
62797;DHT22;48839;48.546;-4.178;2022-07-29T07:11:21;28.60;99.90
62797;DHT22;48839;48.546;-4.178;2022-07-29T07:13:47;28.30;99.90
62797;DHT22;48839;48.546;-4.178;2022-07-29T07:16:13;28.40;72.90
62797;DHT22;48839;48.546;-4.178;2022-07-29T07:18:38;28.20;38.30
62797;DHT22;48839;48.546;-4.178;2022-07-29T07:21:04;28.30;4.70
62797;DHT22;48839;48.546;-4.178;2022-07-29T07:23:31;29.00;24.50
62797;DHT22;48839;48.546;-4.178;2022-07-29T07:25:56;28.80;1.00
62797;DHT22;48839;48.546;-4.178;2022-07-29T07:28:22;29.20;2.20
62797;DHT22;48839;48.546;-4.178;2022-07-29T07:30:48;28.80;1.00
62797;DHT22;48839;48.546;-4.178;2022-07-29T07:33:14;28.50;1.00
62797;DHT22;48839;48.546;-4.178;2022-07-29T07:35:40;27.40;99.90
62797;DHT22;48839;48.546;-4.178;2022-07-29T07:38:06;26.00;99.90
62797;DHT22;48839;48.546;-4.178;2022-07-29T07:40:32;25.90;99.90
62797;DHT22;48839;48.546;-4.178;2022-07-29T07:42:57;25.40;99.90
62797;DHT22;48839;48.546;-4.178;2022-07-29T07:45:23;25.40;1.00
62797;DHT22;48839;48.546;-4.178;2022-07-29T07:47:49;25.70;1.00
62797;DHT22;48839;48.546;-4.178;2022-07-29T07:50:14;25.40;99.90
62797;DHT22;48839;48.546;-4.178;2022-07-29T07:52:53;25.20;99.90
62797;DHT22;48839;48.546;-4.178;2022-07-29T07:55:22;25.40;99.90
62797;DHT22;48839;48.546;-4.178;2022-07-29T07:57:48;26.10;99.90
62797;DHT22;48839;48.546;-4.178;2022-07-29T08:00:16;26.20;99.90
62797;DHT22;48839;48.546;-4.178;2022-07-29T08:02:42;25.60;99.90
62797;DHT22;48839;48.546;-4.178;2022-07-29T08:05:11;25.60;99.90
62797;DHT22;48839;48.546;-4.178;2022-07-29T08:07:39;25.70;99.90
62797;DHT22;48839;48.546;-4.178;2022-07-29T08:10:05;26.30;99.90
62797;DHT22;48839;48.546;-4.178;2022-07-29T08:12:31;25.60;99.90
62797;DHT22;48839;48.546;-4.178;2022-07-29T08:14:56;24.80;99.90
62797;DHT22;48839;48.546;-4.178;2022-07-29T08:17:22;24.80;99.90
62797;DHT22;48839;48.546;-4.178;2022-07-29T08:19:48;25.00;99.90
62797;DHT22;48839;48.546;-4.178;2022-07-29T08:22:14;25.20;99.90
62797;DHT22;48839;48.546;-4.178;2022-07-29T08:24:39;25.60;99.90
62797;DHT22;48839;48.546;-4.178;2022-07-29T08:27:08;26.10;99.90
62797;DHT22;48839;48.546;-4.178;2022-07-29T08:29:34;25.50;99.90
62797;DHT22;48839;48.546;-4.178;2022-07-29T08:32:00;26.30;99.90
62797;DHT22;48839;48.546;-4.178;2022-07-29T08:34:25;26.50;99.90
62797;DHT22;48839;48.546;-4.178;2022-07-29T08:36:51;26.30;99.90
62797;DHT22;48839;48.546;-4.178;2022-07-29T08:39:17;25.40;99.90
62797;DHT22;48839;48.546;-4.178;2022-07-29T08:41:43;25.50;99.90
62797;DHT22;48839;48.546;-4.178;2022-07-29T08:44:09;25.00;71.80
62797;DHT22;48839;48.546;-4.178;2022-07-29T08:46:37;25.10;90.80
62797;DHT22;48839;48.546;-4.178;2022-07-29T08:49:04;25.10;99.90
62797;DHT22;48839;48.546;-4.178;2022-07-29T08:51:30;25.20;99.90
62797;DHT22;48839;48.546;-4.178;2022-07-29T08:53:59;25.60;99.90
62797;DHT22;48839;48.546;-4.178;2022-07-29T08:56:25;25.80;99.90
62797;DHT22;48839;48.546;-4.178;2022-07-29T08:58:51;26.00;73.00
62797;DHT22;48839;48.546;-4.178;2022-07-29T09:01:21;25.50;27.50
62797;DHT22;48839;48.546;-4.178;2022-07-29T09:03:47;25.50;41.60
62797;DHT22;48839;48.546;-4.178;2022-07-29T09:06:15;25.60;56.40
62797;DHT22;48839;48.546;-4.178;2022-07-29T09:08:42;25.70;95.10
62797;DHT22;48839;48.546;-4.178;2022-07-29T09:11:08;26.40;99.90
62797;DHT22;48839;48.546;-4.178;2022-07-29T09:13:34;26.60;79.70
62797;DHT22;48839;48.546;-4.178;2022-07-29T09:16:00;26.60;50.80
62797;DHT22;48839;48.546;-4.178;2022-07-29T09:18:40;27.00;85.40
62797;DHT22;48839;48.546;-4.178;2022-07-29T09:21:08;26.40;6.70
62797;DHT22;48839;48.546;-4.178;2022-07-29T09:26:34;26.20;63.40
62797;DHT22;48839;48.546;-4.178;2022-07-29T09:29:08;27.00;69.60
62797;DHT22;48839;48.546;-4.178;2022-07-29T09:31:36;26.00;54.90
62797;DHT22;48839;48.546;-4.178;2022-07-29T09:34:03;26.40;36.00
62797;DHT22;48839;48.546;-4.178;2022-07-29T09:36:29;26.70;18.00
62797;DHT22;48839;48.546;-4.178;2022-07-29T09:38:59;26.40;28.80
62797;DHT22;48839;48.546;-4.178;2022-07-29T09:41:26;26.00;99.90
62797;DHT22;48839;48.546;-4.178;2022-07-29T09:43:59;26.00;99.90
62797;DHT22;48839;48.546;-4.178;2022-07-29T09:46:26;26.00;1.00
62797;DHT22;48839;48.546;-4.178;2022-07-29T09:49:10;25.90;1.00
62797;DHT22;48839;48.546;-4.178;2022-07-29T09:51:36;25.80;99.90
62797;DHT22;48839;48.546;-4.178;2022-07-29T09:54:23;26.40;99.90
62797;DHT22;48839;48.546;-4.178;2022-07-29T09:56:49;26.90;6.20
62797;DHT22;48839;48.546;-4.178;2022-07-29T09:59:15;26.60;1.00
62797;DHT22;48839;48.546;-4.178;2022-07-29T10:01:41;26.80;1.00
62797;DHT22;48839;48.546;-4.178;2022-07-29T10:04:06;27.00;99.90
62797;DHT22;48839;48.546;-4.178;2022-07-29T10:06:32;27.30;99.90
62797;DHT22;48839;48.546;-4.178;2022-07-29T10:09:08;27.60;99.90
62797;DHT22;48839;48.546;-4.178;2022-07-29T10:11:34;27.70;99.90
62797;DHT22;48839;48.546;-4.178;2022-07-29T10:14:02;27.50;99.90
62797;DHT22;48839;48.546;-4.178;2022-07-29T10:16:28;26.60;99.90
62797;DHT22;48839;48.546;-4.178;2022-07-29T10:18:58;26.80;99.90
62797;DHT22;48839;48.546;-4.178;2022-07-29T10:21:25;26.40;99.90
62797;DHT22;48839;48.546;-4.178;2022-07-29T10:23:52;26.30;99.90
62797;DHT22;48839;48.546;-4.178;2022-07-29T10:26:19;26.40;99.90
62797;DHT22;48839;48.546;-4.178;2022-07-29T10:28:45;26.90;99.90
62797;DHT22;48839;48.546;-4.178;2022-07-29T10:31:19;26.80;99.90
62797;DHT22;48839;48.546;-4.178;2022-07-29T10:34:07;27.20;99.90
62797;DHT22;48839;48.546;-4.178;2022-07-29T10:36:56;27.20;99.90
62797;DHT22;48839;48.546;-4.178;2022-07-29T10:39:38;27.30;99.90
62797;DHT22;48839;48.546;-4.178;2022-07-29T10:44:40;26.80;99.90
62797;DHT22;48839;48.546;-4.178;2022-07-29T10:47:06;26.80;99.90
62797;DHT22;48839;48.546;-4.178;2022-07-29T10:49:32;27.00;99.90
62797;DHT22;48839;48.546;-4.178;2022-07-29T10:52:10;27.00;99.90
62797;DHT22;48839;48.546;-4.178;2022-07-29T10:59:50;26.60;99.90
62797;DHT22;48839;48.546;-4.178;2022-07-29T11:05:03;26.40;99.90
62797;DHT22;48839;48.546;-4.178;2022-07-29T11:07:29;26.40;99.90
62797;DHT22;48839;48.546;-4.178;2022-07-29T11:15:09;27.30;99.90
62797;DHT22;48839;48.546;-4.178;2022-07-29T11:20:42;26.90;99.90
62797;DHT22;48839;48.546;-4.178;2022-07-29T11:23:34;27.20;99.90
62797;DHT22;48839;48.546;-4.178;2022-07-29T11:29:08;27.00;99.90
62797;DHT22;48839;48.546;-4.178;2022-07-29T11:34:27;26.40;99.90
62797;DHT22;48839;48.546;-4.178;2022-07-29T11:44:58;27.10;99.90
62797;DHT22;48839;48.546;-4.178;2022-07-29T11:47:26;26.80;99.90
62797;DHT22;48839;48.546;-4.178;2022-07-29T11:49:54;26.90;99.90
62797;DHT22;48839;48.546;-4.178;2022-07-29T11:52:20;26.90;99.90
62797;DHT22;48839;48.546;-4.178;2022-07-29T11:54:50;26.40;99.90
62797;DHT22;48839;48.546;-4.178;2022-07-29T11:57:18;26.10;99.90
62797;DHT22;48839;48.546;-4.178;2022-07-29T11:59:45;26.20;99.90
62797;DHT22;48839;48.546;-4.178;2022-07-29T12:02:12;26.80;99.90
62797;DHT22;48839;48.546;-4.178;2022-07-29T12:04:51;26.80;99.90
62797;DHT22;48839;48.546;-4.178;2022-07-29T12:07:17;27.00;99.90
62797;DHT22;48839;48.546;-4.178;2022-07-29T12:09:52;26.90;99.90
62797;DHT22;48839;48.546;-4.178;2022-07-29T12:12:19;26.50;99.90
62797;DHT22;48839;48.546;-4.178;2022-07-29T12:14:44;26.60;48.80
62797;DHT22;48839;48.546;-4.178;2022-07-29T12:17:31;26.20;55.50
62797;DHT22;48839;48.546;-4.178;2022-07-29T12:19:59;26.20;99.90
62797;DHT22;48839;48.546;-4.178;2022-07-29T12:22:34;26.40;76.50
62797;DHT22;48839;48.546;-4.178;2022-07-29T12:25:05;26.50;1.00
62797;DHT22;48839;48.546;-4.178;2022-07-29T12:27:32;26.60;71.50
62797;DHT22;48839;48.546;-4.178;2022-07-29T12:30:00;26.70;99.90
62797;DHT22;48839;48.546;-4.178;2022-07-29T12:32:40;26.40;1.00
62797;DHT22;48839;48.546;-4.178;2022-07-29T12:35:08;26.60;99.90
62797;DHT22;48839;48.546;-4.178;2022-07-29T12:37:35;26.60;99.90
62797;DHT22;48839;48.546;-4.178;2022-07-29T12:40:03;26.70;99.90
62797;DHT22;48839;48.546;-4.178;2022-07-29T12:42:29;26.90;99.90
62797;DHT22;48839;48.546;-4.178;2022-07-29T12:44:55;26.90;99.90
62797;DHT22;48839;48.546;-4.178;2022-07-29T12:47:22;26.50;99.90
62797;DHT22;48839;48.546;-4.178;2022-07-29T12:49:50;26.90;99.90
62797;DHT22;48839;48.546;-4.178;2022-07-29T12:52:32;27.10;99.90
62797;DHT22;48839;48.546;-4.178;2022-07-29T12:54:59;26.80;99.90
62797;DHT22;48839;48.546;-4.178;2022-07-29T12:57:26;26.20;99.90
62797;DHT22;48839;48.546;-4.178;2022-07-29T13:00:08;26.60;99.90
62797;DHT22;48839;48.546;-4.178;2022-07-29T13:02:36;26.50;99.90
62797;DHT22;48839;48.546;-4.178;2022-07-29T13:05:02;26.50;99.90
62797;DHT22;48839;48.546;-4.178;2022-07-29T13:07:31;26.40;99.90
62797;DHT22;48839;48.546;-4.178;2022-07-29T13:10:20;26.10;99.90
62797;DHT22;48839;48.546;-4.178;2022-07-29T13:13:05;26.10;99.90
62797;DHT22;48839;48.546;-4.178;2022-07-29T13:15:33;26.40;99.90
62797;DHT22;48839;48.546;-4.178;2022-07-29T13:17:59;26.10;99.90
62797;DHT22;48839;48.546;-4.178;2022-07-29T13:20:27;25.90;99.90
62797;DHT22;48839;48.546;-4.178;2022-07-29T13:22:56;26.20;99.90
62797;DHT22;48839;48.546;-4.178;2022-07-29T13:25:31;25.90;99.90
62797;DHT22;48839;48.546;-4.178;2022-07-29T13:27:58;25.60;99.90
62797;DHT22;48839;48.546;-4.178;2022-07-29T13:30:24;25.60;99.90
62797;DHT22;48839;48.546;-4.178;2022-07-29T13:32:51;25.80;99.90
62797;DHT22;48839;48.546;-4.178;2022-07-29T13:35:18;25.90;99.90
62797;DHT22;48839;48.546;-4.178;2022-07-29T13:37:44;25.80;99.90
62797;DHT22;48839;48.546;-4.178;2022-07-29T13:40:11;26.10;99.90
62797;DHT22;48839;48.546;-4.178;2022-07-29T13:42:37;26.10;99.90
62797;DHT22;48839;48.546;-4.178;2022-07-29T13:45:04;25.90;99.90
62797;DHT22;48839;48.546;-4.178;2022-07-29T13:47:30;25.90;99.90
62797;DHT22;48839;48.546;-4.178;2022-07-29T13:49:55;26.00;99.90
62797;DHT22;48839;48.546;-4.178;2022-07-29T13:52:21;25.80;91.50
62797;DHT22;48839;48.546;-4.178;2022-07-29T13:54:47;25.90;76.40
62797;DHT22;48839;48.546;-4.178;2022-07-29T13:57:13;25.50;70.00
62797;DHT22;48839;48.546;-4.178;2022-07-29T13:59:42;25.50;43.30
62797;DHT22;48839;48.546;-4.178;2022-07-29T14:02:09;25.50;99.90
62797;DHT22;48839;48.546;-4.178;2022-07-29T14:04:35;25.70;99.90
62797;DHT22;48839;48.546;-4.178;2022-07-29T14:07:01;25.30;32.10
62797;DHT22;48839;48.546;-4.178;2022-07-29T14:09:27;25.40;99.90
62797;DHT22;48839;48.546;-4.178;2022-07-29T14:11:53;25.60;93.00
62797;DHT22;48839;48.546;-4.178;2022-07-29T14:14:19;25.50;99.90
62797;DHT22;48839;48.546;-4.178;2022-07-29T14:16:45;25.30;14.20
62797;DHT22;48839;48.546;-4.178;2022-07-29T14:19:11;25.20;99.90
62797;DHT22;48839;48.546;-4.178;2022-07-29T14:21:38;25.30;99.90
62797;DHT22;48839;48.546;-4.178;2022-07-29T14:24:04;25.30;99.90
62797;DHT22;48839;48.546;-4.178;2022-07-29T14:26:29;25.50;99.90
62797;DHT22;48839;48.546;-4.178;2022-07-29T14:28:55;25.30;99.90
62797;DHT22;48839;48.546;-4.178;2022-07-29T14:31:21;25.00;99.90
62797;DHT22;48839;48.546;-4.178;2022-07-29T14:33:47;24.90;99.90
62797;DHT22;48839;48.546;-4.178;2022-07-29T14:36:12;24.80;99.90
62797;DHT22;48839;48.546;-4.178;2022-07-29T14:38:38;24.80;99.90
62797;DHT22;48839;48.546;-4.178;2022-07-29T14:41:06;25.00;99.90
62797;DHT22;48839;48.546;-4.178;2022-07-29T14:43:33;24.80;99.90
62797;DHT22;48839;48.546;-4.178;2022-07-29T14:46:00;24.40;99.90
62797;DHT22;48839;48.546;-4.178;2022-07-29T14:48:26;24.40;99.90
62797;DHT22;48839;48.546;-4.178;2022-07-29T14:50:51;24.50;99.90
62797;DHT22;48839;48.546;-4.178;2022-07-29T14:53:17;24.40;99.90
62797;DHT22;48839;48.546;-4.178;2022-07-29T14:55:43;24.50;99.90
62797;DHT22;48839;48.546;-4.178;2022-07-29T14:58:09;24.70;99.90
62797;DHT22;48839;48.546;-4.178;2022-07-29T15:00:34;24.50;99.90
62797;DHT22;48839;48.546;-4.178;2022-07-29T15:03:02;24.60;99.90
62797;DHT22;48839;48.546;-4.178;2022-07-29T15:05:29;24.30;99.90
62797;DHT22;48839;48.546;-4.178;2022-07-29T15:07:54;24.40;99.90
62797;DHT22;48839;48.546;-4.178;2022-07-29T15:10:20;24.20;99.90
62797;DHT22;48839;48.546;-4.178;2022-07-29T15:12:46;24.50;1.00
62797;DHT22;48839;48.546;-4.178;2022-07-29T15:15:12;24.30;99.90
62797;DHT22;48839;48.546;-4.178;2022-07-29T15:17:37;24.50;99.90
62797;DHT22;48839;48.546;-4.178;2022-07-29T15:20:04;24.70;99.90
62797;DHT22;48839;48.546;-4.178;2022-07-29T15:22:30;24.40;99.90
62797;DHT22;48839;48.546;-4.178;2022-07-29T15:24:55;24.30;99.90
62797;DHT22;48839;48.546;-4.178;2022-07-29T15:27:21;24.10;99.90
62797;DHT22;48839;48.546;-4.178;2022-07-29T15:29:46;24.00;99.90
62797;DHT22;48839;48.546;-4.178;2022-07-29T15:32:12;24.00;1.00
62797;DHT22;48839;48.546;-4.178;2022-07-29T15:34:38;24.30;99.90
62797;DHT22;48839;48.546;-4.178;2022-07-29T15:37:04;24.10;99.90
62797;DHT22;48839;48.546;-4.178;2022-07-29T15:39:30;24.20;99.90
62797;DHT22;48839;48.546;-4.178;2022-07-29T15:41:56;24.20;1.00
62797;DHT22;48839;48.546;-4.178;2022-07-29T15:44:22;23.90;1.00
62797;DHT22;48839;48.546;-4.178;2022-07-29T15:46:48;24.20;1.00
62797;DHT22;48839;48.546;-4.178;2022-07-29T15:51:58;24.10;1.00
62797;DHT22;48839;48.546;-4.178;2022-07-29T15:54:24;23.80;26.40
62797;DHT22;48839;48.546;-4.178;2022-07-29T15:56:50;23.90;99.90
62797;DHT22;48839;48.546;-4.178;2022-07-29T15:59:16;23.90;99.90
62797;DHT22;48839;48.546;-4.178;2022-07-29T16:01:41;24.10;99.90
62797;DHT22;48839;48.546;-4.178;2022-07-29T16:04:07;23.90;99.90
62797;DHT22;48839;48.546;-4.178;2022-07-29T16:06:32;23.70;99.90
62797;DHT22;48839;48.546;-4.178;2022-07-29T16:08:58;23.40;99.90
62797;DHT22;48839;48.546;-4.178;2022-07-29T16:11:25;23.40;99.90
62797;DHT22;48839;48.546;-4.178;2022-07-29T16:13:50;23.00;99.90